sensor_id;sensor_type;location;lat;lon;timestamp;P1;durP1;ratioP1;P2;durP2;ratioP2
10920;SDS011;5513;50.580;8.818;2022-12-11T00:02:22;21.43;;;12.10;;
10920;SDS011;5513;50.580;8.818;2022-12-11T00:04:50;23.03;;;12.20;;
10920;SDS011;5513;50.580;8.818;2022-12-11T00:07:20;22.00;;;12.37;;
10920;SDS011;5513;50.580;8.818;2022-12-11T00:09:48;21.33;;;11.97;;
10920;SDS011;5513;50.580;8.818;2022-12-11T00:12:17;17.87;;;11.83;;
10920;SDS011;5513;50.580;8.818;2022-12-11T00:14:45;21.77;;;12.27;;
10920;SDS011;5513;50.580;8.818;2022-12-11T00:17:15;22.10;;;12.67;;
10920;SDS011;5513;50.580;8.818;2022-12-11T00:19:43;20.97;;;12.17;;
10920;SDS011;5513;50.580;8.818;2022-12-11T00:22:12;20.07;;;11.27;;
10920;SDS011;5513;50.580;8.818;2022-12-11T00:24:46;20.47;;;12.07;;
10920;SDS011;5513;50.580;8.818;2022-12-11T00:27:14;20.43;;;12.37;;
10920;SDS011;5513;50.580;8.818;2022-12-11T00:29:43;20.37;;;12.20;;
10920;SDS011;5513;50.580;8.818;2022-12-11T00:32:12;21.07;;;12.07;;
10920;SDS011;5513;50.580;8.818;2022-12-11T00:34:40;22.00;;;11.70;;
10920;SDS011;5513;50.580;8.818;2022-12-11T00:37:12;18.83;;;11.77;;
10920;SDS011;5513;50.580;8.818;2022-12-11T00:39:40;19.57;;;12.03;;
10920;SDS011;5513;50.580;8.818;2022-12-11T00:42:10;22.33;;;12.20;;
10920;SDS011;5513;50.580;8.818;2022-12-11T00:44:39;22.87;;;12.37;;
10920;SDS011;5513;50.580;8.818;2022-12-11T00:47:11;20.93;;;12.57;;
10920;SDS011;5513;50.580;8.818;2022-12-11T00:49:44;20.63;;;11.77;;
10920;SDS011;5513;50.580;8.818;2022-12-11T00:52:15;21.83;;;13.07;;
10920;SDS011;5513;50.580;8.818;2022-12-11T00:54:44;22.93;;;13.63;;
10920;SDS011;5513;50.580;8.818;2022-12-11T00:57:14;24.83;;;13.23;;
10920;SDS011;5513;50.580;8.818;2022-12-11T00:59:44;24.23;;;13.63;;
10920;SDS011;5513;50.580;8.818;2022-12-11T01:02:13;22.23;;;13.00;;
10920;SDS011;5513;50.580;8.818;2022-12-11T01:04:41;27.03;;;14.33;;
10920;SDS011;5513;50.580;8.818;2022-12-11T01:07:09;22.53;;;13.60;;
10920;SDS011;5513;50.580;8.818;2022-12-11T01:09:38;21.33;;;11.93;;
10920;SDS011;5513;50.580;8.818;2022-12-11T01:12:25;21.57;;;12.70;;
10920;SDS011;5513;50.580;8.818;2022-12-11T01:14:56;20.07;;;11.97;;
10920;SDS011;5513;50.580;8.818;2022-12-11T01:17:25;22.10;;;12.63;;
10920;SDS011;5513;50.580;8.818;2022-12-11T01:19:54;23.93;;;12.97;;
10920;SDS011;5513;50.580;8.818;2022-12-11T01:22:26;23.83;;;12.50;;
10920;SDS011;5513;50.580;8.818;2022-12-11T01:24:55;22.83;;;13.30;;
10920;SDS011;5513;50.580;8.818;2022-12-11T01:27:26;23.47;;;13.80;;
10920;SDS011;5513;50.580;8.818;2022-12-11T01:29:54;20.97;;;12.57;;
10920;SDS011;5513;50.580;8.818;2022-12-11T01:32:26;20.40;;;12.20;;
10920;SDS011;5513;50.580;8.818;2022-12-11T01:34:55;22.90;;;12.63;;
10920;SDS011;5513;50.580;8.818;2022-12-11T01:37:23;19.90;;;12.57;;
10920;SDS011;5513;50.580;8.818;2022-12-11T01:39:51;23.63;;;12.63;;
10920;SDS011;5513;50.580;8.818;2022-12-11T01:42:21;21.03;;;11.60;;
10920;SDS011;5513;50.580;8.818;2022-12-11T01:48:13;20.17;;;11.23;;
10920;SDS011;5513;50.580;8.818;2022-12-11T01:50:48;20.07;;;11.47;;
10920;SDS011;5513;50.580;8.818;2022-12-11T01:53:20;19.23;;;11.37;;
10920;SDS011;5513;50.580;8.818;2022-12-11T01:55:52;19.53;;;10.93;;
10920;SDS011;5513;50.580;8.818;2022-12-11T01:58:23;18.40;;;11.40;;
10920;SDS011;5513;50.580;8.818;2022-12-11T02:00:55;17.47;;;10.50;;
10920;SDS011;5513;50.580;8.818;2022-12-11T02:03:27;20.13;;;11.93;;
10920;SDS011;5513;50.580;8.818;2022-12-11T02:05:58;18.17;;;10.43;;
10920;SDS011;5513;50.580;8.818;2022-12-11T02:08:26;18.30;;;10.43;;
10920;SDS011;5513;50.580;8.818;2022-12-11T02:10:59;18.03;;;10.53;;
10920;SDS011;5513;50.580;8.818;2022-12-11T02:13:38;17.77;;;11.57;;
10920;SDS011;5513;50.580;8.818;2022-12-11T02:16:16;21.73;;;12.23;;
10920;SDS011;5513;50.580;8.818;2022-12-11T02:18:52;19.30;;;12.00;;
10920;SDS011;5513;50.580;8.818;2022-12-11T02:21:30;20.63;;;11.10;;
10920;SDS011;5513;50.580;8.818;2022-12-11T02:24:08;20.90;;;11.27;;
10920;SDS011;5513;50.580;8.818;2022-12-11T02:27:02;20.43;;;11.23;;
10920;SDS011;5513;50.580;8.818;2022-12-11T02:29:52;18.87;;;11.20;;
10920;SDS011;5513;50.580;8.818;2022-12-11T02:32:29;19.43;;;12.00;;
10920;SDS011;5513;50.580;8.818;2022-12-11T02:35:04;21.60;;;11.67;;
10920;SDS011;5513;50.580;8.818;2022-12-11T02:37:40;17.83;;;10.83;;
10920;SDS011;5513;50.580;8.818;2022-12-11T02:40:11;19.57;;;11.63;;
10920;SDS011;5513;50.580;8.818;2022-12-11T02:42:44;20.83;;;11.30;;
10920;SDS011;5513;50.580;8.818;2022-12-11T02:45:17;18.40;;;11.27;;
10920;SDS011;5513;50.580;8.818;2022-12-11T02:47:47;19.73;;;10.90;;
10920;SDS011;5513;50.580;8.818;2022-12-11T02:50:20;19.43;;;11.33;;
10920;SDS011;5513;50.580;8.818;2022-12-11T02:52:50;23.23;;;11.77;;
10920;SDS011;5513;50.580;8.818;2022-12-11T02:55:22;22.03;;;11.23;;
10920;SDS011;5513;50.580;8.818;2022-12-11T02:57:55;19.03;;;11.60;;
10920;SDS011;5513;50.580;8.818;2022-12-11T03:00:31;18.50;;;11.97;;
10920;SDS011;5513;50.580;8.818;2022-12-11T03:03:01;20.03;;;11.57;;
10920;SDS011;5513;50.580;8.818;2022-12-11T03:05:30;19.30;;;11.43;;
10920;SDS011;5513;50.580;8.818;2022-12-11T03:07:59;19.23;;;11.57;;
10920;SDS011;5513;50.580;8.818;2022-12-11T03:10:28;19.30;;;11.03;;
10920;SDS011;5513;50.580;8.818;2022-12-11T03:12:57;20.10;;;11.30;;
10920;SDS011;5513;50.580;8.818;2022-12-11T03:15:27;20.07;;;10.70;;
10920;SDS011;5513;50.580;8.818;2022-12-11T03:18:06;19.07;;;11.27;;
10920;SDS011;5513;50.580;8.818;2022-12-11T03:20:43;18.37;;;10.90;;
10920;SDS011;5513;50.580;8.818;2022-12-11T03:23:15;17.33;;;10.47;;
10920;SDS011;5513;50.580;8.818;2022-12-11T03:25:50;19.00;;;10.80;;
10920;SDS011;5513;50.580;8.818;2022-12-11T03:28:24;19.67;;;11.90;;
10920;SDS011;5513;50.580;8.818;2022-12-11T03:31:02;19.33;;;11.07;;
10920;SDS011;5513;50.580;8.818;2022-12-11T03:33:34;18.60;;;11.47;;
10920;SDS011;5513;50.580;8.818;2022-12-11T03:36:07;19.53;;;11.77;;
10920;SDS011;5513;50.580;8.818;2022-12-11T03:38:39;21.47;;;12.53;;
10920;SDS011;5513;50.580;8.818;2022-12-11T03:41:15;21.20;;;11.47;;
10920;SDS011;5513;50.580;8.818;2022-12-11T03:43:47;20.13;;;12.30;;
10920;SDS011;5513;50.580;8.818;2022-12-11T03:46:22;18.50;;;11.40;;
10920;SDS011;5513;50.580;8.818;2022-12-11T03:48:55;20.53;;;11.77;;
10920;SDS011;5513;50.580;8.818;2022-12-11T03:51:26;23.07;;;12.47;;
10920;SDS011;5513;50.580;8.818;2022-12-11T03:53:57;21.13;;;12.83;;
10920;SDS011;5513;50.580;8.818;2022-12-11T03:56:26;20.47;;;12.07;;
10920;SDS011;5513;50.580;8.818;2022-12-11T03:58:58;18.47;;;12.27;;
10920;SDS011;5513;50.580;8.818;2022-12-11T04:01:28;21.17;;;12.23;;
10920;SDS011;5513;50.580;8.818;2022-12-11T04:03:57;20.60;;;12.93;;
10920;SDS011;5513;50.580;8.818;2022-12-11T04:06:25;23.53;;;13.17;;
10920;SDS011;5513;50.580;8.818;2022-12-11T04:08:55;20.97;;;12.57;;
10920;SDS011;5513;50.580;8.818;2022-12-11T04:11:24;23.63;;;13.13;;
10920;SDS011;5513;50.580;8.818;2022-12-11T04:14:01;23.27;;;13.07;;
10920;SDS011;5513;50.580;8.818;2022-12-11T04:16:49;22.37;;;13.13;;
10920;SDS011;5513;50.580;8.818;2022-12-11T04:19:20;24.80;;;13.33;;
10920;SDS011;5513;50.580;8.818;2022-12-11T04:22:07;23.20;;;13.17;;
10920;SDS011;5513;50.580;8.818;2022-12-11T04:24:53;20.30;;;12.83;;
10920;SDS011;5513;50.580;8.818;2022-12-11T04:27:22;21.67;;;12.97;;
10920;SDS011;5513;50.580;8.818;2022-12-11T04:30:11;23.63;;;13.17;;
10920;SDS011;5513;50.580;8.818;2022-12-11T04:32:45;21.83;;;12.67;;
10920;SDS011;5513;50.580;8.818;2022-12-11T04:35:14;22.40;;;12.40;;
10920;SDS011;5513;50.580;8.818;2022-12-11T04:37:43;22.30;;;12.60;;
10920;SDS011;5513;50.580;8.818;2022-12-11T04:40:12;22.33;;;13.03;;
10920;SDS011;5513;50.580;8.818;2022-12-11T04:42:44;21.17;;;12.67;;
10920;SDS011;5513;50.580;8.818;2022-12-11T04:45:13;22.67;;;12.93;;
10920;SDS011;5513;50.580;8.818;2022-12-11T04:47:42;21.83;;;13.57;;
10920;SDS011;5513;50.580;8.818;2022-12-11T04:50:13;22.50;;;13.43;;
10920;SDS011;5513;50.580;8.818;2022-12-11T04:52:44;24.23;;;13.53;;
10920;SDS011;5513;50.580;8.818;2022-12-11T04:55:12;23.57;;;13.53;;
10920;SDS011;5513;50.580;8.818;2022-12-11T04:57:43;23.70;;;14.03;;
10920;SDS011;5513;50.580;8.818;2022-12-11T05:00:12;22.80;;;14.23;;
10920;SDS011;5513;50.580;8.818;2022-12-11T05:02:42;23.27;;;13.53;;
10920;SDS011;5513;50.580;8.818;2022-12-11T05:05:13;23.13;;;12.80;;
10920;SDS011;5513;50.580;8.818;2022-12-11T05:07:41;24.77;;;13.00;;
10920;SDS011;5513;50.580;8.818;2022-12-11T05:10:11;20.80;;;13.13;;
10920;SDS011;5513;50.580;8.818;2022-12-11T05:12:40;22.93;;;13.33;;
10920;SDS011;5513;50.580;8.818;2022-12-11T05:15:09;21.93;;;13.43;;
10920;SDS011;5513;50.580;8.818;2022-12-11T05:17:38;25.33;;;13.10;;
10920;SDS011;5513;50.580;8.818;2022-12-11T05:20:06;24.30;;;13.70;;
10920;SDS011;5513;50.580;8.818;2022-12-11T05:22:38;22.30;;;13.00;;
10920;SDS011;5513;50.580;8.818;2022-12-11T05:25:07;22.73;;;13.23;;
10920;SDS011;5513;50.580;8.818;2022-12-11T05:27:36;23.63;;;13.27;;
10920;SDS011;5513;50.580;8.818;2022-12-11T05:30:07;23.07;;;13.80;;
10920;SDS011;5513;50.580;8.818;2022-12-11T05:32:38;21.73;;;13.50;;
10920;SDS011;5513;50.580;8.818;2022-12-11T05:35:06;24.97;;;14.37;;
10920;SDS011;5513;50.580;8.818;2022-12-11T05:37:35;22.47;;;13.87;;
10920;SDS011;5513;50.580;8.818;2022-12-11T05:40:08;23.67;;;13.40;;
10920;SDS011;5513;50.580;8.818;2022-12-11T05:42:38;23.87;;;13.83;;
10920;SDS011;5513;50.580;8.818;2022-12-11T05:45:07;24.37;;;14.60;;
10920;SDS011;5513;50.580;8.818;2022-12-11T05:47:38;25.90;;;14.10;;
10920;SDS011;5513;50.580;8.818;2022-12-11T05:50:07;22.57;;;13.80;;
10920;SDS011;5513;50.580;8.818;2022-12-11T05:52:36;23.07;;;13.53;;
10920;SDS011;5513;50.580;8.818;2022-12-11T05:55:07;20.37;;;13.23;;
10920;SDS011;5513;50.580;8.818;2022-12-11T05:57:37;23.83;;;14.00;;
10920;SDS011;5513;50.580;8.818;2022-12-11T06:00:10;24.47;;;14.57;;
10920;SDS011;5513;50.580;8.818;2022-12-11T06:02:41;25.97;;;15.43;;
10920;SDS011;5513;50.580;8.818;2022-12-11T06:05:09;25.43;;;15.50;;
10920;SDS011;5513;50.580;8.818;2022-12-11T06:07:39;21.70;;;14.13;;
10920;SDS011;5513;50.580;8.818;2022-12-11T06:10:09;26.97;;;15.17;;
10920;SDS011;5513;50.580;8.818;2022-12-11T06:12:37;26.43;;;15.07;;
10920;SDS011;5513;50.580;8.818;2022-12-11T06:15:07;24.87;;;15.87;;
10920;SDS011;5513;50.580;8.818;2022-12-11T06:17:36;26.00;;;15.27;;
10920;SDS011;5513;50.580;8.818;2022-12-11T06:20:05;30.93;;;16.80;;
10920;SDS011;5513;50.580;8.818;2022-12-11T06:22:34;30.03;;;16.77;;
10920;SDS011;5513;50.580;8.818;2022-12-11T06:25:02;27.17;;;16.00;;
10920;SDS011;5513;50.580;8.818;2022-12-11T06:27:33;25.37;;;15.03;;
10920;SDS011;5513;50.580;8.818;2022-12-11T06:30:01;25.97;;;15.43;;
10920;SDS011;5513;50.580;8.818;2022-12-11T06:32:29;25.43;;;15.30;;
10920;SDS011;5513;50.580;8.818;2022-12-11T06:34:57;26.20;;;15.17;;
10920;SDS011;5513;50.580;8.818;2022-12-11T06:37:27;26.07;;;15.37;;
10920;SDS011;5513;50.580;8.818;2022-12-11T06:39:55;27.30;;;16.03;;
10920;SDS011;5513;50.580;8.818;2022-12-11T06:42:24;29.90;;;16.23;;
10920;SDS011;5513;50.580;8.818;2022-12-11T06:44:53;25.43;;;15.17;;
10920;SDS011;5513;50.580;8.818;2022-12-11T06:47:25;28.40;;;15.33;;
10920;SDS011;5513;50.580;8.818;2022-12-11T06:49:53;29.30;;;15.47;;
10920;SDS011;5513;50.580;8.818;2022-12-11T06:52:23;26.83;;;15.13;;
10920;SDS011;5513;50.580;8.818;2022-12-11T06:54:54;30.93;;;16.43;;
10920;SDS011;5513;50.580;8.818;2022-12-11T06:57:22;30.73;;;16.30;;
10920;SDS011;5513;50.580;8.818;2022-12-11T06:59:51;26.73;;;15.27;;
10920;SDS011;5513;50.580;8.818;2022-12-11T07:02:21;27.67;;;16.23;;
10920;SDS011;5513;50.580;8.818;2022-12-11T07:04:50;29.30;;;15.97;;
10920;SDS011;5513;50.580;8.818;2022-12-11T07:07:21;25.30;;;15.47;;
10920;SDS011;5513;50.580;8.818;2022-12-11T07:09:49;27.33;;;16.07;;
10920;SDS011;5513;50.580;8.818;2022-12-11T07:12:18;25.43;;;14.67;;
10920;SDS011;5513;50.580;8.818;2022-12-11T07:14:48;29.80;;;17.67;;
10920;SDS011;5513;50.580;8.818;2022-12-11T07:17:22;27.73;;;15.77;;
10920;SDS011;5513;50.580;8.818;2022-12-11T07:19:50;25.33;;;15.17;;
10920;SDS011;5513;50.580;8.818;2022-12-11T07:22:22;27.97;;;15.87;;
10920;SDS011;5513;50.580;8.818;2022-12-11T07:24:55;28.33;;;15.77;;
10920;SDS011;5513;50.580;8.818;2022-12-11T07:27:23;24.80;;;15.23;;
10920;SDS011;5513;50.580;8.818;2022-12-11T07:29:52;28.10;;;16.10;;
10920;SDS011;5513;50.580;8.818;2022-12-11T07:32:22;30.13;;;16.47;;
10920;SDS011;5513;50.580;8.818;2022-12-11T07:34:51;26.37;;;15.77;;
10920;SDS011;5513;50.580;8.818;2022-12-11T07:37:19;28.13;;;15.87;;
10920;SDS011;5513;50.580;8.818;2022-12-11T07:39:48;28.93;;;16.83;;
10920;SDS011;5513;50.580;8.818;2022-12-11T07:42:16;28.77;;;17.07;;
10920;SDS011;5513;50.580;8.818;2022-12-11T07:44:45;26.77;;;15.90;;
10920;SDS011;5513;50.580;8.818;2022-12-11T07:47:13;34.53;;;19.10;;
10920;SDS011;5513;50.580;8.818;2022-12-11T07:49:44;29.63;;;17.07;;
10920;SDS011;5513;50.580;8.818;2022-12-11T07:52:15;54.50;;;29.53;;
10920;SDS011;5513;50.580;8.818;2022-12-11T07:54:44;29.43;;;16.83;;
10920;SDS011;5513;50.580;8.818;2022-12-11T07:57:12;30.53;;;16.67;;
10920;SDS011;5513;50.580;8.818;2022-12-11T07:59:41;48.83;;;27.70;;
10920;SDS011;5513;50.580;8.818;2022-12-11T08:02:10;34.63;;;19.00;;
10920;SDS011;5513;50.580;8.818;2022-12-11T08:04:39;31.77;;;17.87;;
10920;SDS011;5513;50.580;8.818;2022-12-11T08:07:09;36.00;;;20.70;;
10920;SDS011;5513;50.580;8.818;2022-12-11T08:09:41;35.57;;;20.53;;
10920;SDS011;5513;50.580;8.818;2022-12-11T08:12:09;35.23;;;20.67;;
10920;SDS011;5513;50.580;8.818;2022-12-11T08:14:38;31.53;;;18.37;;
10920;SDS011;5513;50.580;8.818;2022-12-11T08:17:07;42.50;;;24.67;;
10920;SDS011;5513;50.580;8.818;2022-12-11T08:19:36;42.87;;;25.43;;
10920;SDS011;5513;50.580;8.818;2022-12-11T08:22:04;53.67;;;34.83;;
10920;SDS011;5513;50.580;8.818;2022-12-11T08:24:34;79.43;;;60.70;;
10920;SDS011;5513;50.580;8.818;2022-12-11T08:27:02;40.17;;;28.60;;
10920;SDS011;5513;50.580;8.818;2022-12-11T08:29:31;35.90;;;23.33;;
10920;SDS011;5513;50.580;8.818;2022-12-11T08:31:59;52.10;;;36.87;;
10920;SDS011;5513;50.580;8.818;2022-12-11T08:34:34;38.50;;;28.13;;
10920;SDS011;5513;50.580;8.818;2022-12-11T08:37:02;40.87;;;23.23;;
10920;SDS011;5513;50.580;8.818;2022-12-11T08:39:31;30.37;;;16.63;;
10920;SDS011;5513;50.580;8.818;2022-12-11T08:42:02;29.80;;;16.80;;
10920;SDS011;5513;50.580;8.818;2022-12-11T08:44:31;30.37;;;16.80;;
10920;SDS011;5513;50.580;8.818;2022-12-11T08:47:02;31.77;;;17.50;;
10920;SDS011;5513;50.580;8.818;2022-12-11T08:49:31;32.50;;;18.33;;
10920;SDS011;5513;50.580;8.818;2022-12-11T08:52:00;37.87;;;20.93;;
10920;SDS011;5513;50.580;8.818;2022-12-11T08:54:29;32.30;;;17.47;;
10920;SDS011;5513;50.580;8.818;2022-12-11T08:56:58;35.97;;;18.60;;
10920;SDS011;5513;50.580;8.818;2022-12-11T08:59:29;45.83;;;23.53;;
10920;SDS011;5513;50.580;8.818;2022-12-11T09:01:57;44.13;;;23.20;;
10920;SDS011;5513;50.580;8.818;2022-12-11T09:04:27;33.57;;;22.07;;
10920;SDS011;5513;50.580;8.818;2022-12-11T09:06:56;29.20;;;20.20;;
10920;SDS011;5513;50.580;8.818;2022-12-11T09:09:26;26.00;;;15.30;;
10920;SDS011;5513;50.580;8.818;2022-12-11T09:11:57;27.97;;;17.70;;
10920;SDS011;5513;50.580;8.818;2022-12-11T09:14:27;38.70;;;22.30;;
10920;SDS011;5513;50.580;8.818;2022-12-11T09:16:57;38.43;;;19.63;;
10920;SDS011;5513;50.580;8.818;2022-12-11T09:19:28;24.73;;;14.77;;
10920;SDS011;5513;50.580;8.818;2022-12-11T09:21:58;21.60;;;14.37;;
10920;SDS011;5513;50.580;8.818;2022-12-11T09:24:27;21.27;;;13.80;;
10920;SDS011;5513;50.580;8.818;2022-12-11T09:26:56;23.20;;;14.93;;
10920;SDS011;5513;50.580;8.818;2022-12-11T09:29:25;19.83;;;12.13;;
10920;SDS011;5513;50.580;8.818;2022-12-11T09:31:55;22.33;;;12.67;;
10920;SDS011;5513;50.580;8.818;2022-12-11T09:34:23;21.73;;;13.30;;
10920;SDS011;5513;50.580;8.818;2022-12-11T09:36:55;22.77;;;13.17;;
10920;SDS011;5513;50.580;8.818;2022-12-11T09:39:23;25.73;;;14.87;;
10920;SDS011;5513;50.580;8.818;2022-12-11T09:41:54;20.33;;;12.13;;
10920;SDS011;5513;50.580;8.818;2022-12-11T09:44:37;20.73;;;12.33;;
10920;SDS011;5513;50.580;8.818;2022-12-11T09:47:18;36.83;;;26.97;;
10920;SDS011;5513;50.580;8.818;2022-12-11T09:49:49;31.13;;;19.93;;
10920;SDS011;5513;50.580;8.818;2022-12-11T09:52:27;24.13;;;15.57;;
10920;SDS011;5513;50.580;8.818;2022-12-11T09:55:14;23.67;;;14.33;;
10920;SDS011;5513;50.580;8.818;2022-12-11T09:57:47;23.20;;;14.10;;
10920;SDS011;5513;50.580;8.818;2022-12-11T10:00:27;24.67;;;15.10;;
10920;SDS011;5513;50.580;8.818;2022-12-11T10:06:01;22.40;;;13.87;;
10920;SDS011;5513;50.580;8.818;2022-12-11T10:08:35;26.43;;;16.33;;
10920;SDS011;5513;50.580;8.818;2022-12-11T10:11:15;23.70;;;15.00;;
10920;SDS011;5513;50.580;8.818;2022-12-11T10:13:57;24.50;;;14.03;;
10920;SDS011;5513;50.580;8.818;2022-12-11T10:16:34;24.57;;;15.40;;
10920;SDS011;5513;50.580;8.818;2022-12-11T10:19:09;33.03;;;19.20;;
10920;SDS011;5513;50.580;8.818;2022-12-11T10:21:44;31.30;;;17.67;;
10920;SDS011;5513;50.580;8.818;2022-12-11T10:24:16;27.10;;;16.87;;
10920;SDS011;5513;50.580;8.818;2022-12-11T10:27:12;22.33;;;13.70;;
10920;SDS011;5513;50.580;8.818;2022-12-11T10:29:44;29.27;;;17.67;;
10920;SDS011;5513;50.580;8.818;2022-12-11T10:32:15;22.80;;;13.87;;
10920;SDS011;5513;50.580;8.818;2022-12-11T10:34:56;24.10;;;12.93;;
10920;SDS011;5513;50.580;8.818;2022-12-11T10:37:29;20.73;;;12.47;;
10920;SDS011;5513;50.580;8.818;2022-12-11T10:39:57;75.40;;;55.07;;
10920;SDS011;5513;50.580;8.818;2022-12-11T10:42:27;22.60;;;15.13;;
10920;SDS011;5513;50.580;8.818;2022-12-11T10:45:14;22.60;;;13.60;;
10920;SDS011;5513;50.580;8.818;2022-12-11T10:47:43;18.47;;;11.93;;
10920;SDS011;5513;50.580;8.818;2022-12-11T10:50:22;25.73;;;18.20;;
10920;SDS011;5513;50.580;8.818;2022-12-11T10:52:52;21.83;;;14.93;;
10920;SDS011;5513;50.580;8.818;2022-12-11T10:55:21;21.03;;;13.37;;
10920;SDS011;5513;50.580;8.818;2022-12-11T10:57:54;20.87;;;11.87;;
10920;SDS011;5513;50.580;8.818;2022-12-11T11:00:30;20.30;;;11.53;;
10920;SDS011;5513;50.580;8.818;2022-12-11T11:03:03;19.67;;;11.77;;
10920;SDS011;5513;50.580;8.818;2022-12-11T11:05:35;20.27;;;11.93;;
10920;SDS011;5513;50.580;8.818;2022-12-11T11:08:11;18.60;;;11.50;;
10920;SDS011;5513;50.580;8.818;2022-12-11T11:10:51;20.87;;;12.17;;
10920;SDS011;5513;50.580;8.818;2022-12-11T11:13:22;18.97;;;11.33;;
10920;SDS011;5513;50.580;8.818;2022-12-11T11:16:03;21.00;;;13.03;;
10920;SDS011;5513;50.580;8.818;2022-12-11T11:18:35;19.07;;;11.20;;
10920;SDS011;5513;50.580;8.818;2022-12-11T11:21:14;15.90;;;10.10;;
10920;SDS011;5513;50.580;8.818;2022-12-11T11:23:42;15.60;;;9.40;;
10920;SDS011;5513;50.580;8.818;2022-12-11T11:26:18;17.47;;;9.47;;
10920;SDS011;5513;50.580;8.818;2022-12-11T11:28:49;18.53;;;11.30;;
10920;SDS011;5513;50.580;8.818;2022-12-11T11:31:20;14.63;;;9.07;;
10920;SDS011;5513;50.580;8.818;2022-12-11T11:34:06;13.93;;;7.90;;
10920;SDS011;5513;50.580;8.818;2022-12-11T11:36:38;13.90;;;7.80;;
10920;SDS011;5513;50.580;8.818;2022-12-11T11:39:14;13.63;;;8.97;;
10920;SDS011;5513;50.580;8.818;2022-12-11T11:41:48;12.90;;;8.43;;
10920;SDS011;5513;50.580;8.818;2022-12-11T11:44:23;13.37;;;7.53;;
10920;SDS011;5513;50.580;8.818;2022-12-11T11:46:57;13.27;;;7.67;;
10920;SDS011;5513;50.580;8.818;2022-12-11T11:49:36;11.40;;;7.40;;
10920;SDS011;5513;50.580;8.818;2022-12-11T11:52:16;15.23;;;7.33;;
10920;SDS011;5513;50.580;8.818;2022-12-11T11:54:54;8.97;;;5.70;;
10920;SDS011;5513;50.580;8.818;2022-12-11T11:57:34;8.37;;;5.60;;
10920;SDS011;5513;50.580;8.818;2022-12-11T12:00:15;10.53;;;5.93;;
10920;SDS011;5513;50.580;8.818;2022-12-11T12:02:46;11.23;;;7.70;;
10920;SDS011;5513;50.580;8.818;2022-12-11T12:05:17;9.47;;;6.17;;
10920;SDS011;5513;50.580;8.818;2022-12-11T12:08:04;10.23;;;5.53;;
10920;SDS011;5513;50.580;8.818;2022-12-11T12:10:43;12.13;;;6.17;;
10920;SDS011;5513;50.580;8.818;2022-12-11T12:13:19;11.00;;;6.23;;
10920;SDS011;5513;50.580;8.818;2022-12-11T12:16:19;9.23;;;5.60;;
10920;SDS011;5513;50.580;8.818;2022-12-11T12:19:20;9.13;;;6.30;;
10920;SDS011;5513;50.580;8.818;2022-12-11T12:22:06;12.03;;;5.50;;
10920;SDS011;5513;50.580;8.818;2022-12-11T12:24:45;8.97;;;5.10;;
10920;SDS011;5513;50.580;8.818;2022-12-11T12:27:21;8.83;;;4.93;;
10920;SDS011;5513;50.580;8.818;2022-12-11T12:30:18;7.70;;;4.60;;
10920;SDS011;5513;50.580;8.818;2022-12-11T12:32:53;8.43;;;5.17;;
10920;SDS011;5513;50.580;8.818;2022-12-11T12:35:33;11.50;;;5.83;;
10920;SDS011;5513;50.580;8.818;2022-12-11T12:38:10;7.67;;;4.90;;
10920;SDS011;5513;50.580;8.818;2022-12-11T12:40:52;8.00;;;4.90;;
10920;SDS011;5513;50.580;8.818;2022-12-11T12:43:38;8.27;;;5.33;;
10920;SDS011;5513;50.580;8.818;2022-12-11T12:46:27;7.00;;;4.63;;
10920;SDS011;5513;50.580;8.818;2022-12-11T12:49:11;9.00;;;5.30;;
10920;SDS011;5513;50.580;8.818;2022-12-11T12:51:43;16.57;;;7.50;;
10920;SDS011;5513;50.580;8.818;2022-12-11T12:54:13;9.07;;;4.70;;
10920;SDS011;5513;50.580;8.818;2022-12-11T12:56:48;9.23;;;5.37;;
10920;SDS011;5513;50.580;8.818;2022-12-11T12:59:17;10.27;;;4.90;;
10920;SDS011;5513;50.580;8.818;2022-12-11T13:01:48;9.13;;;5.40;;
10920;SDS011;5513;50.580;8.818;2022-12-11T13:04:28;9.50;;;5.53;;
10920;SDS011;5513;50.580;8.818;2022-12-11T13:07:24;7.63;;;4.00;;
10920;SDS011;5513;50.580;8.818;2022-12-11T13:09:57;7.53;;;4.57;;
10920;SDS011;5513;50.580;8.818;2022-12-11T13:15:25;7.80;;;4.83;;
10920;SDS011;5513;50.580;8.818;2022-12-11T13:18:02;8.43;;;4.80;;
10920;SDS011;5513;50.580;8.818;2022-12-11T13:20:54;7.37;;;4.50;;
10920;SDS011;5513;50.580;8.818;2022-12-11T13:23:27;6.87;;;4.43;;
10920;SDS011;5513;50.580;8.818;2022-12-11T13:25:58;9.53;;;4.80;;
10920;SDS011;5513;50.580;8.818;2022-12-11T13:28:29;7.63;;;4.70;;
10920;SDS011;5513;50.580;8.818;2022-12-11T13:31:02;7.77;;;4.60;;
10920;SDS011;5513;50.580;8.818;2022-12-11T13:33:37;9.00;;;5.20;;
10920;SDS011;5513;50.580;8.818;2022-12-11T13:39:03;11.20;;;6.07;;
10920;SDS011;5513;50.580;8.818;2022-12-11T13:41:43;10.20;;;6.00;;
10920;SDS011;5513;50.580;8.818;2022-12-11T13:44:17;13.37;;;8.00;;
10920;SDS011;5513;50.580;8.818;2022-12-11T13:46:57;11.37;;;6.97;;
10920;SDS011;5513;50.580;8.818;2022-12-11T13:49:31;13.13;;;7.50;;
10920;SDS011;5513;50.580;8.818;2022-12-11T13:52:04;14.00;;;7.73;;
10920;SDS011;5513;50.580;8.818;2022-12-11T13:54:37;14.37;;;8.90;;
10920;SDS011;5513;50.580;8.818;2022-12-11T13:57:18;16.40;;;8.10;;
10920;SDS011;5513;50.580;8.818;2022-12-11T13:59:51;12.67;;;7.47;;
10920;SDS011;5513;50.580;8.818;2022-12-11T14:02:21;12.70;;;6.97;;
10920;SDS011;5513;50.580;8.818;2022-12-11T14:04:53;9.83;;;5.90;;
10920;SDS011;5513;50.580;8.818;2022-12-11T14:07:28;11.33;;;6.50;;
10920;SDS011;5513;50.580;8.818;2022-12-11T14:09:59;11.73;;;6.77;;
10920;SDS011;5513;50.580;8.818;2022-12-11T14:12:31;12.27;;;7.30;;
10920;SDS011;5513;50.580;8.818;2022-12-11T14:15:00;12.07;;;6.70;;
10920;SDS011;5513;50.580;8.818;2022-12-11T14:17:32;12.93;;;6.77;;
10920;SDS011;5513;50.580;8.818;2022-12-11T14:20:03;18.93;;;8.00;;
10920;SDS011;5513;50.580;8.818;2022-12-11T14:22:35;15.33;;;8.40;;
10920;SDS011;5513;50.580;8.818;2022-12-11T14:25:12;20.23;;;9.97;;
10920;SDS011;5513;50.580;8.818;2022-12-11T14:27:48;17.10;;;8.53;;
10920;SDS011;5513;50.580;8.818;2022-12-11T14:30:19;11.53;;;7.37;;
10920;SDS011;5513;50.580;8.818;2022-12-11T14:32:50;13.87;;;7.17;;
10920;SDS011;5513;50.580;8.818;2022-12-11T14:35:23;15.97;;;7.27;;
10920;SDS011;5513;50.580;8.818;2022-12-11T14:38:06;18.03;;;8.60;;
10920;SDS011;5513;50.580;8.818;2022-12-11T14:40:40;17.60;;;8.70;;
10920;SDS011;5513;50.580;8.818;2022-12-11T14:43:13;18.97;;;8.67;;
10920;SDS011;5513;50.580;8.818;2022-12-11T14:45:47;19.87;;;9.50;;
10920;SDS011;5513;50.580;8.818;2022-12-11T14:48:22;15.40;;;7.47;;
10920;SDS011;5513;50.580;8.818;2022-12-11T14:50:56;13.70;;;7.40;;
10920;SDS011;5513;50.580;8.818;2022-12-11T14:53:31;13.33;;;7.00;;
10920;SDS011;5513;50.580;8.818;2022-12-11T14:56:07;18.50;;;9.47;;
10920;SDS011;5513;50.580;8.818;2022-12-11T14:58:44;20.13;;;10.27;;
10920;SDS011;5513;50.580;8.818;2022-12-11T15:01:20;18.70;;;8.93;;
10920;SDS011;5513;50.580;8.818;2022-12-11T15:04:00;13.83;;;8.00;;
10920;SDS011;5513;50.580;8.818;2022-12-11T15:06:31;16.37;;;7.63;;
10920;SDS011;5513;50.580;8.818;2022-12-11T15:09:13;21.43;;;9.77;;
10920;SDS011;5513;50.580;8.818;2022-12-11T15:11:45;16.03;;;9.00;;
10920;SDS011;5513;50.580;8.818;2022-12-11T15:14:16;14.63;;;7.83;;
10920;SDS011;5513;50.580;8.818;2022-12-11T15:16:47;13.00;;;6.80;;
10920;SDS011;5513;50.580;8.818;2022-12-11T15:19:18;13.47;;;7.10;;
10920;SDS011;5513;50.580;8.818;2022-12-11T15:21:50;26.00;;;13.57;;
10920;SDS011;5513;50.580;8.818;2022-12-11T15:24:22;37.93;;;16.90;;